Aeroporto :
LOGIN :

Iscrizione | Disclaimer

   EN    FR    IT 

 










Sommario :    VFR   VFR Marginale   IFR   IFR Intensivo   IFR Molto Intensivo
Visibilità : 
Base nubi : 
>= 8 km
>= 3000ft
5 / 8 km
1000 / 3000 ft
1500m / 5 km
500 / 1000 ft
800 / 1500m
200 / 500 ft
< 800m
< 200 ft
Simboli :   Temporali  Nebbia  Neve Forte  Precipitazioni Forti  Vento > 20 kt
SIGMETs :   Varie  Temporali  Ghiacco  Turbolenza  Onda orograficha  Ceneri Vulcaniche







- Altitudine del aeroporto : 218 ft
- Codice IATA : LBG
- Carte del aeroporto


LFPB - Paris / Le Bourget

ULTIMO METAR :
  • 240830Z AUTO 35004KT 320V050 CAVOK 17/08 Q1017 NOSIG

METARs OBSOLETI :
  • 240800Z AUTO 34004KT 310V020 CAVOK 17/08 Q1017 NOSIG
  • 240730Z AUTO VRB03KT CAVOK 16/09 Q1017 NOSIG
  • 240700Z AUTO 34004KT 290V030 CAVOK 16/10 Q1017 NOSIG
  • 240630Z AUTO 34005KT CAVOK 15/10 Q1017 NOSIG
  • 240600Z AUTO 33004KT 270V020 CAVOK 15/10 Q1017 NOSIG

TAF TAF LFPB
Valido dal 24 a 06 ore il 25 a 06 ore UTC


240500Z 2406/2506 32008KT CAVOK
PROB40 2411/2420 FEW045TCU
PROB30
TEMPO 2412/2417 -TSRA SCT040CB
ATIS : +33 1 48 62 43 92
Nessun NOTAM noto per questo aeroporto.



MetMap, La meteo Aeronautica in un colpo d'occhio ! - Copyright ORBIFLY Dicembre 2007 - Disclaimer

ORBIFLY MET'MAP TEAM :

Programmazione e sviluppo : Alexandra Zaïnal
Concezione e sviluppo : Baudouin d'Aumeries
Co-Programmazione e sviluppo : Marc-Olivier Méhu
Supporto tecnico e logistico : Manuel Goepfert
Aiuto per la traduzione : Arnaldo La Scala

Contatto : metmap@orbifly.com




FONTI E CREDITI :

   NOAA